Time;durP1;ratioP1;P1;durP2;ratioP2;P2;SDS_P1;SDS_P2;PMS_P1;PMS_P2;Temp;Humidity;BMP_temperature;BMP_pressure;BME280_temperature;BME280_humidity;BME280_pressure;Samples;Min_cycle;Max_cycle;Signal;HPM_P1;HPM_P2
2020/12/11 00:00:27;;;;;;;15.43;8.28;;;2.90;99.90;;;;;;1914523;73;21043;-80
2020/12/11 00:02:53;;;;;;;11.63;7.70;;;2.90;99.90;;;;;;1916500;73;21181;-79
2020/12/11 00:05:19;;;;;;;12.47;7.97;;;2.90;99.90;;;;;;1944648;72;21058;-80
2020/12/11 00:07:46;;;;;;;14.28;8.30;;;2.90;99.90;;;;;;1940658;72;21152;-80
2020/12/11 00:10:12;;;;;;;12.50;7.55;;;2.90;99.90;;;;;;1921208;73;21146;-80
2020/12/11 00:12:38;;;;;;;18.30;7.97;;;2.80;99.90;;;;;;1923917;73;21140;-80
2020/12/11 00:15:04;;;;;;;13.35;7.65;;;2.70;99.90;;;;;;1915643;73;21066;-79
2020/12/11 00:17:31;;;;;;;17.98;8.35;;;2.70;99.90;;;;;;1921122;73;21420;-80
2020/12/11 00:19:57;;;;;;;17.07;8.38;;;2.70;99.90;;;;;;1923835;72;21074;-78
2020/12/11 00:22:24;;;;;;;13.68;8.30;;;2.70;99.90;;;;;;1916537;73;21075;-79
2020/12/11 00:24:50;;;;;;;19.62;9.00;;;2.70;99.90;;;;;;1940497;73;21067;-79
2020/12/11 00:27:16;;;;;;;13.98;7.85;;;2.70;99.90;;;;;;1952030;73;21074;-80
2020/12/11 00:29:44;;;;;;;15.28;8.00;;;2.70;99.90;;;;;;1922657;73;21066;-79
2020/12/11 00:32:10;;;;;;;14.87;8.65;;;2.80;99.90;;;;;;1929999;73;21439;-80
2020/12/11 00:34:36;;;;;;;15.32;8.30;;;2.70;99.90;;;;;;1933524;73;21465;-80
2020/12/11 00:37:02;;;;;;;11.28;7.35;;;2.70;99.90;;;;;;1922074;73;21431;-79
2020/12/11 00:39:28;;;;;;;16.45;7.92;;;2.70;99.90;;;;;;1943106;73;21596;-79
2020/12/11 00:41:54;;;;;;;15.50;8.63;;;2.70;99.90;;;;;;1922047;72;21176;-80
2020/12/11 00:44:20;;;;;;;13.32;8.05;;;2.70;99.90;;;;;;1927777;73;21069;-79
2020/12/11 00:46:47;;;;;;;14.60;8.45;;;2.70;99.90;;;;;;1926368;73;21123;-79
2020/12/11 00:49:13;;;;;;;15.32;8.33;;;2.70;99.90;;;;;;1934238;73;21193;-79
2020/12/11 00:51:39;;;;;;;11.10;7.28;;;2.70;99.90;;;;;;1937928;73;21094;-79
2020/12/11 00:54:05;;;;;;;10.08;6.92;;;2.70;99.90;;;;;;1922183;73;21066;-79
2020/12/11 00:56:31;;;;;;;10.88;7.42;;;2.70;99.90;;;;;;1938679;73;21157;-80
2020/12/11 00:58:59;;;;;;;13.20;7.33;;;2.70;99.90;;;;;;1925652;73;21186;-80
2020/12/11 01:01:25;;;;;;;10.98;7.12;;;2.70;99.90;;;;;;1918288;73;21051;-79
2020/12/11 01:03:51;;;;;;;14.40;8.13;;;2.70;99.90;;;;;;1926913;73;21118;-80
2020/12/11 01:06:17;;;;;;;15.03;8.05;;;2.80;99.90;;;;;;1935420;73;21031;-80
2020/12/11 01:08:43;;;;;;;10.80;7.37;;;2.70;99.90;;;;;;1939749;72;21128;-80
2020/12/11 01:11:09;;;;;;;12.85;7.12;;;2.90;99.90;;;;;;1933444;73;21065;-80
2020/12/11 01:13:36;;;;;;;10.35;6.78;;;2.80;99.90;;;;;;1912494;73;21058;-81
2020/12/11 01:16:02;;;;;;;10.35;6.67;;;2.80;99.90;;;;;;1926810;73;21129;-80
2020/12/11 01:18:28;;;;;;;11.08;6.67;;;2.80;99.90;;;;;;1946692;72;21450;-80
2020/12/11 01:20:56;;;;;;;9.88;6.78;;;2.90;99.90;;;;;;1937083;73;21419;-80
2020/12/11 01:23:22;;;;;;;15.08;6.67;;;2.80;99.90;;;;;;1953408;72;21103;-79
2020/12/11 01:25:48;;;;;;;10.78;5.75;;;2.80;99.90;;;;;;1934916;73;21066;-80
2020/12/11 01:28:14;;;;;;;9.00;5.35;;;2.70;99.90;;;;;;1925474;73;21516;-78
2020/12/11 01:30:40;;;;;;;12.60;6.42;;;2.80;99.90;;;;;;1939423;72;21481;-79
2020/12/11 01:33:06;;;;;;;11.28;6.87;;;2.70;99.90;;;;;;1926268;73;21477;-80
2020/12/11 01:35:32;;;;;;;10.38;6.25;;;2.60;99.90;;;;;;1931113;73;21059;-79
2020/12/11 01:38:00;;;;;;;11.22;5.83;;;2.60;99.90;;;;;;1923876;73;21038;-81
2020/12/11 01:40:26;;;;;;;11.00;6.33;;;2.60;99.90;;;;;;1934095;73;21074;-81
2020/12/11 01:42:52;;;;;;;12.45;7.03;;;2.50;99.90;;;;;;1914974;73;21133;-81
2020/12/11 01:45:18;;;;;;;10.48;7.03;;;2.40;99.90;;;;;;1928100;72;21042;-80
2020/12/11 01:47:44;;;;;;;19.00;7.67;;;2.40;99.90;;;;;;1928809;72;21038;-79
2020/12/11 01:50:19;;;;;;;9.15;6.20;;;2.40;99.90;;;;;;1928290;73;21143;-79
2020/12/11 01:52:41;;;;;;;10.63;6.95;;;2.40;99.90;;;;;;1934609;73;21058;-80
2020/12/11 01:55:07;;;;;;;10.05;6.62;;;2.30;99.90;;;;;;1934303;72;21064;-78
2020/12/11 01:57:33;;;;;;;11.65;7.33;;;2.30;99.90;;;;;;1933619;73;21148;-78
2020/12/11 01:59:59;;;;;;;9.95;6.28;;;2.30;99.90;;;;;;1920970;73;21148;-80
2020/12/11 02:02:25;;;;;;;9.83;6.83;;;2.30;99.90;;;;;;1929485;73;21133;-80
2020/12/11 02:04:51;;;;;;;13.22;6.72;;;2.20;99.90;;;;;;1935507;73;21446;-78
2020/12/11 02:07:17;;;;;;;12.50;7.10;;;2.20;99.90;;;;;;1928208;73;21452;-79
2020/12/11 02:09:43;;;;;;;10.98;6.80;;;2.30;99.90;;;;;;1924366;73;21609;-78
2020/12/11 02:12:10;;;;;;;13.75;8.08;;;2.30;99.90;;;;;;1931002;73;21490;-78
2020/12/11 02:14:36;;;;;;;16.42;8.18;;;2.30;99.90;;;;;;1936110;72;21054;-79
2020/12/11 02:17:02;;;;;;;11.28;7.40;;;2.20;99.90;;;;;;1911558;73;21149;-78
2020/12/11 02:19:33;;;;;;;14.53;8.05;;;2.20;99.90;;;;;;1929232;73;21031;-78
2020/12/11 02:21:58;;;;;;;;;;;2.30;99.90;;;;;;1925360;73;21036;-81
2020/12/11 02:24:24;;;;;;;11.95;6.78;;;2.30;99.90;;;;;;1954031;71;20329;-80
2020/12/11 02:26:51;;;;;;;12.53;7.45;;;2.30;99.90;;;;;;1937838;72;21461;-79
2020/12/11 02:29:17;;;;;;;12.23;7.22;;;2.30;99.90;;;;;;1946121;73;21071;-80
2020/12/11 02:31:43;;;;;;;13.00;7.78;;;2.30;99.90;;;;;;1938530;73;21118;-79
2020/12/11 02:34:09;;;;;;;14.13;8.43;;;2.20;99.90;;;;;;1950914;71;21059;-79
2020/12/11 02:36:35;;;;;;;14.60;7.83;;;2.20;99.90;;;;;;1933913;73;21059;-79
2020/12/11 02:39:01;;;;;;;11.70;7.47;;;2.20;99.90;;;;;;1935112;72;21058;-80
2020/12/11 02:41:27;;;;;;;14.78;7.55;;;2.10;99.90;;;;;;1930756;73;21174;-80
2020/12/11 02:43:53;;;;;;;14.55;7.33;;;2.10;99.90;;;;;;1944517;72;21128;-80
2020/12/11 02:46:20;;;;;;;14.73;7.45;;;2.00;99.90;;;;;;1932962;73;21183;-80
2020/12/11 02:48:46;;;;;;;13.70;8.03;;;2.00;99.90;;;;;;1938448;73;21129;-79
2020/12/11 02:51:12;;;;;;;13.03;7.62;;;1.90;99.90;;;;;;1942436;72;21491;-80
2020/12/11 02:53:40;;;;;;;12.90;7.37;;;1.90;99.90;;;;;;1934944;73;21407;-81
2020/12/11 02:56:06;;;;;;;12.28;6.78;;;1.80;99.90;;;;;;1936005;73;21040;-81
2020/12/11 02:58:32;;;;;;;14.05;7.78;;;1.80;99.90;;;;;;1940665;73;21043;-81
2020/12/11 03:00:59;;;;;;;12.93;7.12;;;1.80;99.90;;;;;;1964532;72;21066;-82
2020/12/11 03:03:25;;;;;;;10.72;7.03;;;1.70;99.90;;;;;;1921506;73;21495;-82
2020/12/11 03:05:51;;;;;;;11.70;7.00;;;1.60;99.90;;;;;;1946008;73;21513;-81
2020/12/11 03:08:17;;;;;;;12.00;7.20;;;1.60;99.90;;;;;;1934316;73;21486;-81
2020/12/11 03:10:43;;;;;;;9.48;6.58;;;1.60;99.90;;;;;;1925468;73;21188;-81
2020/12/11 03:13:09;;;;;;;9.05;6.45;;;1.60;99.90;;;;;;1924551;73;21117;-81
2020/12/11 03:15:35;;;;;;;11.53;7.37;;;1.60;99.90;;;;;;1937634;73;21059;-79
2020/12/11 03:18:01;;;;;;;11.33;7.25;;;1.60;99.90;;;;;;1929007;73;21042;-77
2020/12/11 03:20:28;;;;;;;9.20;6.83;;;1.50;99.90;;;;;;1923534;73;21139;-80
2020/12/11 03:22:56;;;;;;;13.95;7.83;;;1.50;99.90;;;;;;1922870;73;21171;-81
2020/12/11 03:25:21;;;;;;;12.58;7.35;;;1.50;99.90;;;;;;1940940;72;21110;-80
2020/12/11 03:27:48;;;;;;;11.43;7.40;;;1.50;99.90;;;;;;1902085;73;21090;-80
2020/12/11 03:30:14;;;;;;;10.75;7.03;;;1.40;99.90;;;;;;1927568;73;21141;-80
2020/12/11 03:32:40;;;;;;;14.15;7.42;;;1.40;99.90;;;;;;1931966;72;21030;-80
2020/12/11 03:35:06;;;;;;;13.20;8.23;;;1.40;99.90;;;;;;1928891;73;21195;-81
2020/12/11 03:37:32;;;;;;;9.30;7.45;;;1.30;99.90;;;;;;1933207;73;21117;-81
2020/12/11 03:39:58;;;;;;;13.45;7.70;;;1.30;99.90;;;;;;1924736;72;21054;-80
2020/12/11 03:42:24;;;;;;;12.60;7.55;;;1.30;99.90;;;;;;1929382;73;21136;-80
2020/12/11 03:44:50;;;;;;;11.10;6.95;;;1.30;99.90;;;;;;1921624;73;21039;-80
2020/12/11 03:47:17;;;;;;;12.85;7.78;;;1.30;99.90;;;;;;1931869;72;21059;-81
2020/12/11 03:49:43;;;;;;;12.60;7.53;;;1.20;99.90;;;;;;1934508;73;21071;-81
2020/12/11 03:52:09;;;;;;;11.30;7.03;;;1.20;99.90;;;;;;1936546;73;21130;-81
2020/12/11 03:54:35;;;;;;;11.80;7.60;;;1.10;99.90;;;;;;1932205;73;21532;-80
2020/12/11 03:57:01;;;;;;;13.98;8.40;;;1.00;99.90;;;;;;1936134;73;21528;-79
2020/12/11 03:59:27;;;;;;;13.00;7.75;;;1.00;99.90;;;;;;1923661;73;21447;-80
2020/12/11 04:01:53;;;;;;;13.30;8.35;;;0.90;99.90;;;;;;1928172;73;21109;-79
2020/12/11 04:04:19;;;;;;;13.90;7.67;;;0.90;99.90;;;;;;1932659;73;21058;-80
2020/12/11 04:06:46;;;;;;;13.55;8.70;;;0.80;99.90;;;;;;1898944;73;21104;-80
2020/12/11 04:09:12;;;;;;;15.55;8.98;;;0.70;99.90;;;;;;1938565;73;21070;-79
2020/12/11 04:11:38;;;;;;;13.43;8.08;;;0.60;99.90;;;;;;1926933;72;21128;-79
2020/12/11 04:14:04;;;;;;;16.17;8.33;;;0.60;99.90;;;;;;1923665;73;21027;-81
2020/12/11 04:16:30;;;;;;;15.58;9.00;;;0.60;99.90;;;;;;1931053;73;21070;-80
2020/12/11 04:18:56;;;;;;;14.60;8.70;;;0.70;99.90;;;;;;1943942;72;21168;-80
2020/12/11 04:21:22;;;;;;;14.35;7.97;;;0.60;99.90;;;;;;1932026;73;21075;-79
2020/12/11 04:23:48;;;;;;;11.80;7.75;;;0.70;99.90;;;;;;1928955;73;21054;-80
2020/12/11 04:26:14;;;;;;;14.68;8.43;;;0.60;99.90;;;;;;1930727;73;21212;-80
2020/12/11 04:28:41;;;;;;;18.30;9.25;;;0.50;99.90;;;;;;1919160;73;21035;-81
2020/12/11 04:31:07;;;;;;;16.37;8.50;;;0.50;99.90;;;;;;1924895;73;21080;-81
2020/12/11 04:33:33;;;;;;;14.70;8.10;;;0.50;99.90;;;;;;1928678;73;21493;-81
2020/12/11 04:35:59;;;;;;;13.32;8.13;;;0.50;99.90;;;;;;1924248;73;21455;-80
2020/12/11 04:38:26;;;;;;;16.65;8.50;;;0.50;99.90;;;;;;1926438;73;21182;-79
2020/12/11 04:40:52;;;;;;;14.45;8.88;;;0.40;99.90;;;;;;1930639;73;21043;-79
2020/12/11 04:43:18;;;;;;;13.45;9.10;;;0.50;99.90;;;;;;1927920;73;21116;-81
2020/12/11 04:45:44;;;;;;;18.02;9.75;;;0.50;99.90;;;;;;1928355;73;21070;-80
2020/12/11 04:48:10;;;;;;;13.83;8.93;;;0.40;99.90;;;;;;1923811;73;21136;-80
2020/12/11 04:50:36;;;;;;;13.13;8.40;;;0.40;99.90;;;;;;1927815;73;21332;-80
2020/12/11 04:53:04;;;;;;;20.52;9.20;;;0.40;99.90;;;;;;1931337;73;21098;-80
2020/12/11 04:55:30;;;;;;;15.53;8.33;;;0.50;99.90;;;;;;1929657;73;21096;-81
2020/12/11 04:57:58;;;;;;;17.37;9.88;;;0.40;99.90;;;;;;1921560;73;21058;-80
2020/12/11 05:00:24;;;;;;;15.18;8.78;;;0.30;99.90;;;;;;1918098;73;21065;-79
2020/12/11 05:02:50;;;;;;;15.98;8.85;;;0.20;99.90;;;;;;1927918;73;21051;-80
2020/12/11 05:05:16;;;;;;;15.55;9.18;;;0.30;99.90;;;;;;1925663;73;21465;-81
2020/12/11 05:07:42;;;;;;;14.75;9.10;;;0.30;99.90;;;;;;1929444;72;21482;-81
2020/12/11 05:10:08;;;;;;;15.60;9.65;;;0.30;99.90;;;;;;1922545;73;21063;-82
2020/12/11 05:12:34;;;;;;;16.97;9.48;;;0.20;99.90;;;;;;1897874;73;21031;-80
2020/12/11 05:15:01;;;;;;;15.53;8.73;;;0.10;99.90;;;;;;1922518;72;21140;-81
2020/12/11 05:17:27;;;;;;;16.50;9.58;;;0.00;99.90;;;;;;1921562;73;21034;-80
2020/12/11 05:19:53;;;;;;;16.23;9.43;;;-0.10;99.90;;;;;;1903849;73;21157;-81
2020/12/11 05:22:19;;;;;;;19.23;9.18;;;-0.10;99.90;;;;;;1934869;72;21074;-81
2020/12/11 05:24:46;;;;;;;16.30;9.35;;;-0.30;99.90;;;;;;1927089;73;21074;-82
2020/12/11 05:27:12;;;;;;;16.70;9.75;;;-0.30;99.90;;;;;;1931063;73;21051;-82
2020/12/11 05:29:38;;;;;;;18.30;9.53;;;-0.30;99.90;;;;;;1937270;73;21063;-80
2020/12/11 05:32:04;;;;;;;14.78;9.20;;;-0.20;99.90;;;;;;1940488;72;21088;-81
2020/12/11 05:34:30;;;;;;;17.20;9.28;;;-0.20;99.90;;;;;;1916697;73;21069;-79
2020/12/11 05:36:56;;;;;;;17.62;10.00;;;-0.20;99.90;;;;;;1932564;73;21181;-78
2020/12/11 05:39:22;;;;;;;20.35;9.88;;;-0.20;99.90;;;;;;1936533;72;21062;-82
2020/12/11 05:41:50;;;;;;;14.25;9.15;;;-0.20;99.90;;;;;;1939942;73;21123;-79
2020/12/11 05:44:16;;;;;;;20.48;10.60;;;-0.20;99.90;;;;;;1926005;73;21067;-78
2020/12/11 05:46:42;;;;;;;15.13;8.90;;;-0.20;99.90;;;;;;1930286;72;21185;-80
2020/12/11 05:49:08;;;;;;;17.00;9.15;;;-0.30;99.90;;;;;;1921134;73;21124;-80
2020/12/11 05:51:39;;;;;;;16.15;9.20;;;-0.40;99.90;;;;;;1922713;73;21066;-79
2020/12/11 05:54:02;;;;;;;15.28;9.35;;;-0.40;99.90;;;;;;1921073;73;21061;-80
2020/12/11 05:56:29;;;;;;;16.65;9.43;;;-0.40;99.90;;;;;;1934737;73;21061;-79
2020/12/11 05:58:55;;;;;;;15.78;8.98;;;-0.40;99.90;;;;;;1931707;72;21066;-80
2020/12/11 06:01:21;;;;;;;18.90;9.88;;;-0.40;99.90;;;;;;1925179;73;21124;-84
2020/12/11 06:03:47;;;;;;;15.55;9.43;;;-0.40;99.90;;;;;;1933317;73;21179;-83
2020/12/11 06:06:13;;;;;;;21.27;10.60;;;-0.40;99.90;;;;;;1927982;73;21040;-83
2020/12/11 06:08:39;;;;;;;18.60;10.10;;;-0.30;99.90;;;;;;1922273;73;21127;-80
2020/12/11 06:11:05;;;;;;;22.15;10.05;;;-0.20;99.90;;;;;;1929866;73;21061;-79
2020/12/11 06:13:31;;;;;;;17.50;10.48;;;-0.20;99.90;;;;;;1930458;73;21078;-80
2020/12/11 06:15:57;;;;;;;17.17;9.90;;;-0.20;99.90;;;;;;1936295;73;21065;-80
2020/12/11 06:18:26;;;;;;;17.17;10.28;;;-0.20;99.90;;;;;;1920206;73;21082;-81
2020/12/11 06:20:51;;;;;;;26.97;10.23;;;-0.20;99.90;;;;;;1921540;73;21133;-82
2020/12/11 06:23:18;;;;;;;18.10;10.25;;;-0.20;99.90;;;;;;1925956;73;21132;-81
2020/12/11 06:25:44;;;;;;;22.58;10.95;;;-0.30;99.90;;;;;;1925107;73;21117;-81
2020/12/11 06:28:10;;;;;;;21.02;11.18;;;-0.20;99.90;;;;;;1930550;73;21135;-81
2020/12/11 06:30:36;;;;;;;18.50;9.90;;;-0.20;99.90;;;;;;1931098;73;21066;-81
2020/12/11 06:33:02;;;;;;;17.80;10.43;;;-0.20;99.90;;;;;;1931908;73;21114;-81
2020/12/11 06:35:28;;;;;;;18.57;10.38;;;-0.20;99.90;;;;;;1925591;73;21136;-80
2020/12/11 06:37:54;;;;;;;20.50;11.20;;;-0.20;99.90;;;;;;1930631;73;21124;-80
2020/12/11 06:40:22;;;;;;;18.62;9.93;;;-0.20;99.90;;;;;;1929101;73;21035;-80
2020/12/11 06:42:48;;;;;;;17.45;9.85;;;-0.10;99.90;;;;;;1934137;72;21099;-81
2020/12/11 06:45:14;;;;;;;13.05;8.93;;;-0.20;99.90;;;;;;1923181;73;21128;-78
2020/12/11 06:47:42;;;;;;;18.05;9.95;;;-0.20;99.90;;;;;;1924123;73;21066;-80
2020/12/11 06:50:10;;;;;;;21.33;10.63;;;-0.10;99.90;;;;;;1936235;73;21271;-85
2020/12/11 06:52:36;;;;;;;15.85;9.53;;;-0.10;99.90;;;;;;1934720;72;21083;-82
2020/12/11 06:55:02;;;;;;;18.02;9.40;;;-0.10;99.90;;;;;;1935149;73;21068;-80
2020/12/11 06:57:28;;;;;;;16.62;9.93;;;0.00;99.90;;;;;;1916268;73;21547;-82
2020/12/11 06:59:54;;;;;;;20.70;10.63;;;0.00;99.90;;;;;;1936168;73;21136;-81
2020/12/11 07:02:20;;;;;;;21.42;10.75;;;0.10;99.90;;;;;;1927418;73;21058;-79
2020/12/11 07:04:48;;;;;;;18.45;10.88;;;0.10;99.90;;;;;;1919492;73;21042;-82
2020/12/11 07:07:14;;;;;;;20.57;9.93;;;0.10;99.90;;;;;;1921424;73;21555;-81
2020/12/11 07:09:40;;;;;;;16.00;9.65;;;0.20;99.90;;;;;;1929452;72;21140;-83
2020/12/11 07:12:06;;;;;;;23.83;10.72;;;0.20;99.90;;;;;;1927955;73;21054;-84
2020/12/11 07:14:32;;;;;;;15.03;9.78;;;0.20;99.90;;;;;;1923802;73;21070;-84
2020/12/11 07:16:59;;;;;;;21.55;10.68;;;0.20;99.90;;;;;;1923532;72;21031;-78
2020/12/11 07:19:26;;;;;;;17.37;10.05;;;0.20;99.90;;;;;;1932684;73;21495;-78
2020/12/11 07:21:52;;;;;;;20.27;10.68;;;0.20;99.90;;;;;;1937386;73;21539;-82
2020/12/11 07:24:18;;;;;;;21.12;10.68;;;0.20;99.90;;;;;;1926169;73;21466;-80
2020/12/11 07:26:44;;;;;;;16.70;9.93;;;0.30;99.90;;;;;;1914867;73;21583;-82
2020/12/11 07:29:10;;;;;;;14.83;10.23;;;0.30;99.90;;;;;;1929462;73;21031;-76
2020/12/11 07:31:37;;;;;;;32.35;11.45;;;0.20;99.90;;;;;;1932152;73;21054;-79
2020/12/11 07:34:03;;;;;;;20.08;10.90;;;0.20;99.90;;;;;;1932728;73;21066;-79
2020/12/11 07:36:29;;;;;;;21.27;11.80;;;0.10;99.90;;;;;;1937709;73;21063;-75
2020/12/11 07:38:55;;;;;;;20.60;10.30;;;0.20;99.90;;;;;;1935002;73;21078;-80
2020/12/11 07:41:21;;;;;;;20.62;9.68;;;0.20;99.90;;;;;;1926343;73;21047;-84
2020/12/11 07:43:47;;;;;;;17.85;9.45;;;0.20;99.90;;;;;;1928682;73;21062;-86
2020/12/11 07:46:15;;;;;;;22.17;11.53;;;0.20;99.90;;;;;;1946435;73;21106;-81
2020/12/11 07:48:41;;;;;;;17.00;10.78;;;0.20;99.90;;;;;;1932015;72;21136;-81
2020/12/11 07:51:09;;;;;;;17.27;9.90;;;0.20;99.90;;;;;;1921578;73;21478;-81
2020/12/11 07:53:35;;;;;;;18.32;10.13;;;0.30;99.90;;;;;;1926022;73;21144;-82
2020/12/11 07:56:03;;;;;;;24.07;12.05;;;0.30;99.90;;;;;;1948026;73;21221;-80
2020/12/11 07:58:29;;;;;;;18.52;9.83;;;0.20;99.90;;;;;;1931712;72;21074;-84
2020/12/11 08:00:55;;;;;;;23.62;10.93;;;0.30;99.90;;;;;;1927174;73;21039;-81
2020/12/11 08:03:21;;;;;;;23.30;11.08;;;0.30;99.90;;;;;;1931594;72;21132;-85
2020/12/11 08:05:48;;;;;;;22.10;10.82;;;0.40;99.90;;;;;;1930330;73;21075;-80
2020/12/11 08:08:14;;;;;;;19.70;9.95;;;0.40;99.90;;;;;;1935424;73;21181;-81
2020/12/11 08:10:43;;;;;;;20.10;10.45;;;0.40;99.90;;;;;;1913213;73;21051;-87
2020/12/11 08:13:09;;;;;;;20.35;10.28;;;0.40;99.90;;;;;;1907895;73;21052;-83
2020/12/11 08:15:36;;;;;;;18.87;10.85;;;0.50;99.90;;;;;;1924434;72;21067;-88
2020/12/11 08:18:02;;;;;;;20.08;10.13;;;0.40;99.90;;;;;;1927885;73;21066;-82
2020/12/11 08:20:28;;;;;;;20.17;11.15;;;0.40;99.90;;;;;;1931852;73;21136;-80
2020/12/11 08:22:54;;;;;;;26.27;10.85;;;0.50;99.90;;;;;;1938633;73;21136;-86
2020/12/11 08:25:20;;;;;;;24.80;10.98;;;0.60;99.90;;;;;;1930877;73;21047;-84
2020/12/11 08:27:46;;;;;;;26.62;11.95;;;0.70;99.90;;;;;;1921659;72;21062;-85
2020/12/11 08:30:14;;;;;;;19.62;10.85;;;0.70;99.90;;;;;;1938892;73;21199;-86
2020/12/11 08:32:40;;;;;;;22.77;12.07;;;0.90;99.90;;;;;;1922053;73;21062;-77
2020/12/11 08:35:06;;;;;;;20.35;10.38;;;1.10;99.90;;;;;;1921189;73;21075;-79
2020/12/11 08:37:32;;;;;;;17.73;10.05;;;1.20;99.90;;;;;;1938877;73;21117;-80
2020/12/11 08:39:59;;;;;;;26.07;11.85;;;1.20;99.90;;;;;;1923478;72;21059;-82
2020/12/11 08:42:28;;;;;;;25.95;10.65;;;1.30;99.90;;;;;;1948193;73;21178;-84
2020/12/11 08:50:18;;;;;;;21.87;10.98;;;1.30;99.90;;;;;;1864589;73;21151;-80
2020/12/11 08:52:38;;;;;;;23.52;11.48;;;1.20;99.90;;;;;;1928367;73;21051;-82
2020/12/11 08:55:04;;;;;;;20.80;11.63;;;1.10;99.90;;;;;;1928283;73;21122;-81
2020/12/11 08:57:32;;;;;;;29.40;10.40;;;1.10;99.90;;;;;;1936232;73;21055;-78
2020/12/11 08:59:58;;;;;;;23.98;11.03;;;1.20;99.90;;;;;;1944156;72;21203;-85
2020/12/11 09:02:26;;;;;;;21.00;10.23;;;1.30;99.90;;;;;;1938572;72;21065;-82
2020/12/11 09:04:52;;;;;;;21.23;9.85;;;1.50;99.90;;;;;;1938734;73;21136;-80
2020/12/11 09:07:20;;;;;;;18.12;9.95;;;1.50;99.90;;;;;;1923132;73;21055;-82
2020/12/11 09:09:49;;;;;;;16.97;9.08;;;1.50;99.90;;;;;;1923187;73;22004;-82
2020/12/11 09:12:15;;;;;;;21.00;10.48;;;1.60;99.90;;;;;;1934261;72;21165;-81
2020/12/11 09:14:41;;;;;;;15.83;9.10;;;1.70;99.90;;;;;;1931576;73;21070;-80
2020/12/11 09:17:08;;;;;;;20.45;9.10;;;2.00;99.90;;;;;;1938788;73;21055;-82
2020/12/11 09:19:34;;;;;;;24.20;9.50;;;2.20;99.90;;;;;;1940748;72;21110;-80
2020/12/11 09:22:04;;;;;;;17.12;9.43;;;2.30;99.90;;;;;;1937693;72;21061;-84
2020/12/11 09:24:29;;;;;;;17.37;8.67;;;2.20;99.90;;;;;;1931897;72;21074;-79
2020/12/11 09:26:56;;;;;;;18.40;9.05;;;2.20;99.90;;;;;;1921847;73;21266;-82
2020/12/11 09:29:32;;;;;;;15.18;9.65;;;2.30;99.90;;;;;;1941129;73;21047;-78
2020/12/11 09:31:57;;;;;;;15.53;8.68;;;2.40;99.90;;;;;;1928071;73;21183;-85
2020/12/11 09:34:23;;;;;;;20.70;8.93;;;2.50;99.90;;;;;;1939013;72;21074;-81
2020/12/11 09:36:49;;;;;;;13.40;7.65;;;2.40;99.90;;;;;;1942651;73;21119;-85
2020/12/11 09:39:16;;;;;;;17.00;8.95;;;2.50;99.90;;;;;;1940964;73;21215;-76
2020/12/11 09:41:49;;;;;;;16.05;8.58;;;2.60;99.90;;;;;;1925266;73;21070;-79
2020/12/11 09:46:48;;;;;;;15.75;7.03;;;2.70;99.90;;;;;;1790935;78;21214;-80
2020/12/11 09:49:14;;;;;;;14.25;8.58;;;2.70;99.90;;;;;;1895783;73;21079;-80
2020/12/11 09:51:50;;;;;;;17.77;8.58;;;2.80;99.90;;;;;;1930673;73;21055;-83
2020/12/11 09:56:34;;;;;;;14.28;8.63;;;2.90;99.90;;;;;;1930453;72;21435;-80
2020/12/11 09:59:16;;;;;;;14.65;8.15;;;2.80;99.90;;;;;;1942120;73;21110;-79
2020/12/11 10:04:10;;;;;;;;;;;2.80;99.90;;;;;;1948719;73;21454;-79
2020/12/11 10:06:36;;;;;;;21.37;7.53;;;2.80;99.90;;;;;;1953659;72;20340;-81
2020/12/11 10:09:03;;;;;;;16.52;7.37;;;2.80;99.90;;;;;;1939258;73;21447;-81
2020/12/11 10:11:29;;;;;;;13.55;7.53;;;2.90;99.90;;;;;;1947549;72;21487;-80
2020/12/11 10:14:13;;;;;;;15.18;8.18;;;3.00;99.90;;;;;;1939262;72;21565;-79
2020/12/11 10:16:23;;;;;;;18.07;8.60;;;3.00;99.90;;;;;;1939142;73;21145;-82
2020/12/11 10:18:49;;;;;;;14.53;7.55;;;2.90;99.90;;;;;;1943126;73;21071;-79
2020/12/11 10:21:15;;;;;;;17.82;7.67;;;3.00;99.90;;;;;;1946408;72;21440;-82
2020/12/11 10:23:41;;;;;;;14.83;7.87;;;3.10;99.90;;;;;;1947770;72;21071;-81
2020/12/11 10:26:07;;;;;;;16.55;8.10;;;3.00;99.90;;;;;;1943125;73;21127;-77
2020/12/11 10:28:33;;;;;;;15.58;7.30;;;2.90;99.90;;;;;;1943928;73;21140;-75
2020/12/11 10:30:59;;;;;;;10.68;7.62;;;3.00;99.90;;;;;;1948525;73;21063;-75
2020/12/11 10:33:26;;;;;;;14.05;8.65;;;3.10;99.90;;;;;;1953776;73;21067;-77
2020/12/11 10:35:52;;;;;;;15.70;6.85;;;3.20;99.90;;;;;;1949485;72;21060;-76
2020/12/11 10:38:19;;;;;;;20.68;8.13;;;3.30;99.90;;;;;;1946544;73;21074;-81
2020/12/11 10:40:45;;;;;;;12.43;7.33;;;3.20;99.90;;;;;;1947847;73;21102;-77
2020/12/11 10:43:11;;;;;;;13.08;7.58;;;3.20;99.90;;;;;;1947833;73;21148;-75
2020/12/11 10:45:37;;;;;;;19.32;7.37;;;3.20;99.90;;;;;;1948567;73;21063;-78
2020/12/11 10:48:03;;;;;;;14.80;7.53;;;3.00;99.90;;;;;;1951135;72;21138;-75
2020/12/11 10:50:30;;;;;;;13.70;7.60;;;2.90;99.90;;;;;;1956451;72;21068;-74
2020/12/11 10:52:56;;;;;;;20.35;9.08;;;2.80;99.90;;;;;;1948317;73;21132;-76
2020/12/11 10:55:22;;;;;;;14.50;8.83;;;2.70;99.90;;;;;;1947020;72;21141;-81
2020/12/11 10:57:48;;;;;;;19.30;9.38;;;2.90;99.90;;;;;;1949847;72;21071;-76
2020/12/11 11:00:14;;;;;;;16.42;8.33;;;2.90;99.90;;;;;;1943176;73;21071;-77
2020/12/11 11:02:42;;;;;;;17.42;8.85;;;3.00;99.90;;;;;;1920490;73;21129;-80
2020/12/11 11:05:08;;;;;;;16.23;8.73;;;3.10;99.90;;;;;;1950582;72;21099;-83
2020/12/11 11:07:34;;;;;;;17.02;7.80;;;3.10;99.90;;;;;;1947528;72;21503;-80
2020/12/11 11:13:13;;;;;;;14.07;7.50;;;3.40;99.90;;;;;;1964081;72;21086;-83
2020/12/11 11:18:04;;;;;;;15.50;7.55;;;3.80;99.90;;;;;;1926216;73;21176;-83
2020/12/11 11:20:44;;;;;;;14.00;8.30;;;4.20;99.90;;;;;;1935418;73;21439;-80
2020/12/11 11:23:15;;;;;;;12.78;7.58;;;4.40;99.90;;;;;;1945364;72;21181;-79
2020/12/11 11:26:03;;;;;;;13.95;6.78;;;5.00;99.90;;;;;;1941509;72;21111;-79
2020/12/11 11:28:12;;;;;;;14.93;7.97;;;5.40;99.90;;;;;;1944874;73;21542;-78
2020/12/11 11:30:38;;;;;;;15.83;8.18;;;5.00;99.90;;;;;;1948706;73;21532;-78
2020/12/11 11:33:06;;;;;;;16.02;8.53;;;5.10;99.90;;;;;;1948455;73;21553;-78
2020/12/11 11:35:32;;;;;;;12.98;7.83;;;4.90;99.90;;;;;;1953293;73;21253;-80
2020/12/11 11:37:58;;;;;;;17.98;8.75;;;4.60;99.90;;;;;;1945821;73;21032;-79
2020/12/11 11:40:24;;;;;;;14.38;7.80;;;4.50;99.90;;;;;;1950726;73;21071;-79
2020/12/11 11:42:50;;;;;;;17.02;8.15;;;4.50;99.90;;;;;;1944468;72;21078;-77
2020/12/11 11:45:19;;;;;;;14.53;7.67;;;4.50;99.90;;;;;;1948308;72;21117;-78
2020/12/11 11:47:49;;;;;;;13.50;7.08;;;4.60;99.90;;;;;;1958859;71;21091;-81
2020/12/11 11:50:22;;;;;;;12.50;7.80;;;4.80;99.90;;;;;;1946713;73;21192;-81
2020/12/11 11:52:43;;;;;;;13.10;6.90;;;4.70;99.90;;;;;;1947539;72;21505;-82
2020/12/11 11:55:10;;;;;;;13.85;7.70;;;4.60;99.90;;;;;;1948810;72;21158;-83
2020/12/11 11:57:35;;;;;;;16.65;7.70;;;4.50;99.90;;;;;;1946658;72;21104;-83
2020/12/11 12:00:03;;;;;;;10.98;6.90;;;4.40;99.90;;;;;;1945759;73;21071;-84
2020/12/11 12:02:29;;;;;;;13.65;8.00;;;4.50;99.90;;;;;;1947749;73;21066;-81
2020/12/11 12:04:58;;;;;;;21.23;8.83;;;4.30;99.90;;;;;;1950477;72;21066;-84
2020/12/11 12:07:25;;;;;;;14.65;8.13;;;4.10;99.90;;;;;;1948811;73;21087;-83
2020/12/11 12:09:52;;;;;;;15.15;9.28;;;4.20;99.90;;;;;;1942370;73;21503;-84
2020/12/11 12:12:18;;;;;;;17.92;9.08;;;4.10;99.90;;;;;;1938954;72;21114;-84
2020/12/11 12:14:46;;;;;;;11.80;7.65;;;4.10;99.90;;;;;;1949348;73;21067;-84
2020/12/11 12:17:12;;;;;;;12.60;7.22;;;4.20;99.90;;;;;;1949425;72;21074;-82
2020/12/11 12:19:44;;;;;;;16.25;7.75;;;4.30;99.90;;;;;;1947816;72;21135;-80
2020/12/11 12:30:09;;;;;;;16.23;8.53;;;4.20;99.90;;;;;;1948101;73;21487;-85
2020/12/11 12:32:53;;;;;;;13.72;7.42;;;4.10;99.90;;;;;;1937762;73;21623;-83
2020/12/11 12:35:22;;;;;;;18.17;6.70;;;4.20;99.90;;;;;;1926891;73;21169;-83
2020/12/11 12:37:42;;;;;;;15.08;7.97;;;4.30;99.90;;;;;;1936392;73;22807;-85
2020/12/11 12:40:46;;;;;;;13.22;7.15;;;4.20;99.90;;;;;;1938047;73;21103;-84
2020/12/11 12:43:13;;;;;;;13.78;8.15;;;4.50;99.90;;;;;;1944972;73;21174;-85
2020/12/11 12:45:30;;;;;;;11.78;6.97;;;4.40;99.90;;;;;;1929006;72;21074;-85
2020/12/11 12:47:57;;;;;;;14.30;8.03;;;4.30;99.90;;;;;;1964882;72;21283;-84
2020/12/11 12:50:23;;;;;;;15.98;7.83;;;4.30;99.90;;;;;;1942056;73;21533;-83
2020/12/11 12:52:49;;;;;;;23.62;9.03;;;4.30;99.90;;;;;;1938716;72;21470;-84
2020/12/11 12:55:18;;;;;;;12.43;7.00;;;4.50;99.90;;;;;;1931565;73;21151;-84
2020/12/11 12:57:49;;;;;;;13.70;6.95;;;4.60;99.90;;;;;;1923646;72;21215;-84
2020/12/11 13:05:23;;;;;;;13.55;8.13;;;4.40;99.90;;;;;;1928123;73;21050;-86
2020/12/11 13:07:49;;;;;;;15.60;7.45;;;4.40;99.90;;;;;;1930665;73;21139;-85
2020/12/11 13:10:15;;;;;;;12.13;7.58;;;4.40;99.90;;;;;;1896665;73;21715;-84
2020/12/11 13:12:42;;;;;;;13.15;7.72;;;4.30;99.90;;;;;;1935414;73;21605;-84